createdAt,value
2018-11-25T00:00:05.606Z,32
2018-11-25T00:02:05.533Z,32
2018-11-25T00:04:05.274Z,32
2018-11-25T00:06:06.019Z,32.1
2018-11-25T00:08:05.790Z,32
2018-11-25T00:10:05.432Z,32
2018-11-25T00:12:05.199Z,31.8
2018-11-25T00:14:05.891Z,31.8
2018-11-25T00:16:05.636Z,32
2018-11-25T00:18:05.632Z,32
2018-11-25T00:20:05.368Z,32
2018-11-25T00:22:08.147Z,31.9
2018-11-25T00:24:05.851Z,31.9
2018-11-25T00:26:05.571Z,31.9
2018-11-25T00:28:05.275Z,32.1
2018-11-25T00:30:06.044Z,31.8
2018-11-25T00:32:05.240Z,31.8
2018-11-25T00:34:05.923Z,31.8
2018-11-25T00:36:13.208Z,31.8
2018-11-25T00:38:05.943Z,31.8
2018-11-25T00:40:05.679Z,31.6
2018-11-25T00:42:07.920Z,31.8
2018-11-25T00:44:05.676Z,31.7
2018-11-25T00:46:05.951Z,32
2018-11-25T00:48:08.239Z,31.7
2018-11-25T00:50:06.036Z,31.7
2018-11-25T00:52:05.706Z,31.9
2018-11-25T00:54:05.436Z,31.9
2018-11-25T00:56:05.159Z,31.7
2018-11-25T00:58:05.854Z,31.9
2018-11-25T01:00:05.583Z,31.8
2018-11-25T01:02:05.354Z,31.8
2018-11-25T01:04:07.630Z,31.6
2018-11-25T01:06:05.393Z,31.6
2018-11-25T01:08:05.125Z,31.7
2018-11-25T01:10:05.823Z,31.8
2018-11-25T01:12:05.589Z,31.8
2018-11-25T01:14:05.384Z,32
2018-11-25T01:16:05.079Z,31.9
2018-11-25T01:18:10.207Z,31.7
2018-11-25T01:20:05.920Z,31.7
2018-11-25T01:22:05.647Z,31.7
2018-11-25T01:24:07.892Z,31.8
2018-11-25T01:26:05.580Z,31.8
2018-11-25T01:28:05.265Z,31.8
2018-11-25T01:30:06.030Z,31.8
2018-11-25T01:32:08.266Z,31.9
2018-11-25T01:34:05.955Z,31.9
2018-11-25T01:36:05.647Z,31.8
2018-11-25T01:38:05.336Z,31.8
2018-11-25T01:40:04.989Z,31.8
2018-11-25T01:42:05.166Z,32
2018-11-25T01:44:05.851Z,31.8
2018-11-25T01:46:05.504Z,31.8
2018-11-25T01:48:05.179Z,31.8
2018-11-25T01:50:05.872Z,31.9
2018-11-25T01:52:05.581Z,31.8
2018-11-25T01:54:05.437Z,31.8
2018-11-25T01:56:05.096Z,31.8
2018-11-25T01:58:05.767Z,31.8
2018-11-25T02:00:05.987Z,31.8
2018-11-25T02:02:08.207Z,31.8
2018-11-25T02:04:08.607Z,31.8
2018-11-25T02:06:05.279Z,31.8
2018-11-25T02:08:08.501Z,31.6
2018-11-25T02:10:05.229Z,31.6
2018-11-25T02:12:05.914Z,31.7
2018-11-25T02:14:05.631Z,31.8
2018-11-25T02:16:05.416Z,31.8
2018-11-25T02:18:05.305Z,31.8
2018-11-25T02:20:13.565Z,31.8
2018-11-25T02:22:05.423Z,31.6
2018-11-25T02:24:05.615Z,31.6
2018-11-25T02:26:05.417Z,31.6
2018-11-25T02:28:07.625Z,31.8
2018-11-25T02:30:05.858Z,31.8
2018-11-25T02:32:08.091Z,31.8
2018-11-25T02:34:05.745Z,31.8
2018-11-25T02:36:05.441Z,31.8
2018-11-25T02:38:05.125Z,31.8
2018-11-25T02:40:05.811Z,31.8
2018-11-25T02:42:05.681Z,31.8
2018-11-25T02:44:05.569Z,31.8
2018-11-25T02:46:05.218Z,31.8
2018-11-25T02:48:05.463Z,31.8
2018-11-25T02:50:10.233Z,31.8
2018-11-25T02:52:05.417Z,31.8
2018-11-25T02:54:07.626Z,31.8
2018-11-25T02:56:05.368Z,31.8
2018-11-25T02:58:05.148Z,31.8
2018-11-25T03:00:05.855Z,31.8
2018-11-25T03:02:05.947Z,31.8
2018-11-25T03:04:05.375Z,31.8
2018-11-25T03:06:05.651Z,31.8
2018-11-25T03:08:05.463Z,31.8
2018-11-25T03:10:05.193Z,31.8
2018-11-25T03:12:05.891Z,32
2018-11-25T03:14:05.595Z,31.8
2018-11-25T03:16:07.825Z,32
2018-11-25T03:18:05.732Z,31.8
2018-11-25T03:20:05.447Z,31.8
2018-11-25T03:22:07.640Z,32
2018-11-25T03:24:07.819Z,32
2018-11-25T03:26:05.485Z,32
2018-11-25T03:28:05.185Z,32
2018-11-25T03:30:05.882Z,32
2018-11-25T03:32:05.572Z,32
2018-11-25T03:34:05.306Z,32
2018-11-25T03:36:05.027Z,32
2018-11-25T03:38:05.713Z,32
2018-11-25T03:40:05.445Z,32
2018-11-25T03:42:05.135Z,32
2018-11-25T03:44:05.869Z,32
2018-11-25T03:46:05.659Z,32
2018-11-25T03:48:05.886Z,32
2018-11-25T03:50:10.664Z,32
2018-11-25T03:52:08.026Z,32
2018-11-25T03:54:05.759Z,32
2018-11-25T03:56:05.467Z,32
2018-11-25T03:58:05.156Z,32
2018-11-25T04:00:05.858Z,32
2018-11-25T04:02:05.510Z,32
2018-11-25T04:04:05.156Z,32
2018-11-25T04:06:05.400Z,32
2018-11-25T04:08:05.115Z,32
2018-11-25T04:10:05.804Z,32.3
2018-11-25T04:12:04.997Z,32.3
2018-11-25T04:14:05.756Z,32.3
2018-11-25T04:16:05.015Z,32.3
2018-11-25T04:18:05.890Z,32.3
2018-11-25T04:20:08.115Z,32
2018-11-25T04:22:05.404Z,32
2018-11-25T04:24:05.129Z,32.3
2018-11-25T04:26:05.924Z,32.3
2018-11-25T04:28:05.621Z,32.3
2018-11-25T04:30:05.367Z,32.3
2018-11-25T04:32:05.587Z,32.3
2018-11-25T04:34:05.806Z,32.3
2018-11-25T04:36:05.518Z,32.3
2018-11-25T04:38:05.198Z,32.3
2018-11-25T04:40:05.880Z,32.3
2018-11-25T04:42:05.579Z,32.3
2018-11-25T04:44:05.265Z,32.3
2018-11-25T04:46:05.492Z,32.2
2018-11-25T04:48:05.187Z,32.2
2018-11-25T04:50:10.979Z,32
2018-11-25T04:52:08.196Z,32
2018-11-25T04:54:11.046Z,32
2018-11-25T04:56:08.263Z,31.9
2018-11-25T04:58:05.929Z,31.9
2018-11-25T05:00:05.621Z,31.9
2018-11-25T05:02:05.283Z,31.9
2018-11-25T05:04:05.972Z,31.8
2018-11-25T05:06:05.664Z,31.7
2018-11-25T05:08:07.908Z,31.9
2018-11-25T05:10:05.545Z,31.9
2018-11-25T05:12:05.232Z,31.8
2018-11-25T05:14:05.953Z,31.6
2018-11-25T05:16:05.657Z,31.9
2018-11-25T05:18:05.532Z,31.8
2018-11-25T05:20:05.281Z,31.6
2018-11-25T05:22:05.962Z,31.6
2018-11-25T05:24:05.642Z,31.6
2018-11-25T05:26:05.335Z,31.5
2018-11-25T05:28:07.617Z,31.7
2018-11-25T05:30:05.837Z,31.7
2018-11-25T05:32:05.117Z,31.7
2018-11-25T05:34:07.868Z,31.6
2018-11-25T05:36:05.501Z,31.6
2018-11-25T05:38:07.809Z,31.6
2018-11-25T05:40:05.074Z,31.6
2018-11-25T05:42:05.810Z,31.6
2018-11-25T05:47:13.732Z,31.5
2018-11-25T05:48:07.206Z,31.5
2018-11-25T05:50:08.876Z,31.6
2018-11-25T05:52:05.962Z,32
2018-11-25T05:54:05.596Z,31.7
2018-11-25T05:56:05.250Z,31.5
2018-11-25T05:58:05.518Z,31.5
2018-11-25T06:00:05.308Z,31.4
2018-11-25T06:02:05.041Z,31.7
2018-11-25T06:04:05.747Z,31.4
2018-11-25T06:06:05.445Z,31.3
2018-11-25T06:08:05.141Z,31.6
2018-11-25T06:10:05.779Z,31.5
2018-11-25T06:12:10.506Z,31.3
2018-11-25T06:14:08.249Z,31.3
2018-11-25T06:16:10.999Z,31.3
2018-11-25T06:18:05.490Z,31.3
2018-11-25T06:20:05.190Z,31.6
2018-11-25T06:22:05.892Z,31.3
2018-11-25T06:24:10.670Z,31.3
2018-11-25T06:26:05.373Z,31.3
2018-11-25T06:28:05.105Z,31.5
2018-11-25T06:30:05.877Z,31.4
2018-11-25T06:32:05.578Z,31.5
2018-11-25T06:34:07.789Z,31.2
2018-11-25T06:36:13.063Z,31.5
2018-11-25T06:38:05.797Z,31.4
2018-11-25T06:40:10.564Z,31.4
2018-11-25T06:42:05.304Z,31.5
2018-11-25T06:44:08.517Z,31.4
2018-11-25T06:46:05.697Z,31.4
2018-11-25T06:48:05.855Z,31.4
2018-11-25T06:50:05.551Z,31.4
2018-11-25T06:52:07.793Z,31.4
2018-11-25T06:54:05.054Z,31.4
2018-11-25T06:56:08.246Z,31.3
2018-11-25T06:58:05.933Z,31.3
2018-11-25T07:00:05.598Z,31.3
2018-11-25T07:02:05.312Z,31.3
2018-11-25T07:04:06.042Z,31.1
2018-11-25T07:06:05.804Z,31.3
2018-11-25T07:08:05.504Z,31.3
2018-11-25T07:10:05.180Z,31
2018-11-25T07:12:05.884Z,31
2018-11-25T07:14:05.174Z,31.2
2018-11-25T07:16:06.919Z,31.3
2018-11-25T07:18:08.277Z,31.2
2018-11-25T07:20:11.032Z,31
2018-11-25T07:22:05.704Z,31.2
2018-11-25T07:24:05.911Z,31.2
2018-11-25T07:26:05.579Z,31.2
2018-11-25T07:28:18.872Z,31.2
2018-11-25T07:30:10.314Z,31.1
2018-11-25T07:32:05.976Z,31.2
2018-11-25T07:34:05.700Z,31.1
2018-11-25T07:36:05.381Z,31.1
2018-11-25T07:38:07.632Z,31.2
2018-11-25T07:40:10.388Z,31.2
2018-11-25T07:42:05.073Z,30.9
2018-11-25T07:44:05.731Z,31.1
2018-11-25T07:46:08.511Z,31.2
2018-11-25T07:48:08.245Z,30.9
2018-11-25T07:50:05.923Z,31.1
2018-11-25T07:52:05.690Z,31
2018-11-25T07:54:05.974Z,31
2018-11-25T07:56:05.702Z,30.9
2018-11-25T07:58:05.362Z,31
2018-11-25T08:00:05.265Z,31.1
2018-11-25T08:02:05.703Z,31.1
2018-11-25T08:04:05.405Z,31
2018-11-25T08:06:05.174Z,31.1
2018-11-25T08:08:08.459Z,31.1
2018-11-25T08:10:05.199Z,31
2018-11-25T08:12:20.638Z,30.9
2018-11-25T08:14:05.826Z,31.1
2018-11-25T08:16:05.570Z,31.1
2018-11-25T08:18:05.993Z,30.9
2018-11-25T08:20:09.196Z,30.8
2018-11-25T08:22:05.187Z,30.8
2018-11-25T08:24:05.930Z,30.9
2018-11-25T08:26:05.589Z,31
2018-11-25T08:28:10.880Z,31.1
2018-11-25T08:30:05.079Z,31.1
2018-11-25T08:32:05.785Z,30.8
2018-11-25T08:34:06.017Z,31
2018-11-25T08:36:05.756Z,31
2018-11-25T08:38:13.525Z,31
2018-11-25T08:40:07.760Z,30.9
2018-11-25T08:42:06.011Z,30.9
2018-11-25T08:44:05.244Z,30.9
2018-11-25T08:46:05.949Z,30.9
2018-11-25T08:48:05.676Z,30.9
2018-11-25T08:50:05.344Z,30.9
2018-11-25T08:52:05.082Z,30.9
2018-11-25T08:54:08.449Z,30.9
2018-11-25T08:56:05.179Z,30.9
2018-11-25T08:58:05.874Z,30.9
2018-11-25T09:00:10.684Z,30.9
2018-11-25T09:02:05.316Z,30.9
2018-11-25T09:04:06.065Z,30.9
2018-11-25T09:06:08.394Z,30.9
2018-11-25T09:08:05.611Z,30.9
2018-11-25T09:10:07.847Z,30.9
2018-11-25T09:12:05.601Z,30.9
2018-11-25T09:14:10.367Z,30.8
2018-11-25T09:16:05.029Z,30.8
2018-11-25T09:18:05.997Z,30.8
2018-11-25T09:20:05.722Z,30.8
2018-11-25T09:22:05.978Z,30.7
2018-11-25T09:24:05.694Z,30.7
2018-11-25T09:26:10.412Z,31
2018-11-25T09:28:05.611Z,31
2018-11-25T09:30:05.323Z,30.9
2018-11-25T09:32:05.112Z,30.9
2018-11-25T09:34:05.330Z,30.9
2018-11-25T09:36:05.009Z,30.9
2018-11-25T09:38:05.235Z,30.6
2018-11-25T09:40:05.929Z,30.8
2018-11-25T09:42:05.631Z,30.8
2018-11-25T09:44:05.343Z,30.8
2018-11-25T09:46:05.015Z,30.7
2018-11-25T09:48:05.727Z,30.8
2018-11-25T09:50:07.980Z,30.5
2018-11-25T09:52:05.668Z,30.5
2018-11-25T09:54:05.913Z,30.4
2018-11-25T09:56:05.601Z,30.5
2018-11-25T09:58:05.255Z,30.7
2018-11-25T10:00:06.012Z,30.7
2018-11-25T10:02:05.707Z,30.6
2018-11-25T10:04:05.381Z,30.8
2018-11-25T10:06:07.607Z,30.7
2018-11-25T10:08:05.328Z,30.7
2018-11-25T10:10:05.559Z,30.6
2018-11-25T10:12:07.823Z,30.7
2018-11-25T10:14:05.574Z,30.4
2018-11-25T10:16:05.359Z,30.7
2018-11-25T10:18:08.776Z,30.5
2018-11-25T10:20:05.437Z,30.5
2018-11-25T10:22:05.097Z,30.6
2018-11-25T10:24:05.834Z,30.6
2018-11-25T10:26:05.512Z,30.6
2018-11-25T10:28:05.219Z,30.6
2018-11-25T10:30:05.895Z,30.5
2018-11-25T10:32:05.115Z,30.4
2018-11-25T10:34:08.446Z,30.5
2018-11-25T10:36:05.760Z,30.5
2018-11-25T10:38:05.983Z,30.9
2018-11-25T10:40:10.750Z,30.7
2018-11-25T10:42:08.033Z,31
2018-11-25T10:44:05.928Z,31
2018-11-25T10:46:05.682Z,30.9
2018-11-25T10:48:13.006Z,30.9
2018-11-25T10:50:10.695Z,30.9
2018-11-25T10:52:05.523Z,30.9
2018-11-25T10:54:05.892Z,30.9
2018-11-25T10:56:05.550Z,30.9
2018-11-25T10:58:05.337Z,31
2018-11-25T11:00:05.040Z,30.9
2018-11-25T11:02:05.756Z,30.9
2018-11-25T11:04:05.766Z,31
2018-11-25T11:06:05.796Z,30.9
2018-11-25T11:08:05.778Z,30.9
2018-11-25T11:10:08.016Z,30.9
2018-11-25T11:12:06.111Z,30.9
2018-11-25T11:14:05.829Z,31.1
2018-11-25T11:16:05.528Z,31.1
2018-11-25T11:18:10.499Z,31
2018-11-25T11:20:05.373Z,31
2018-11-25T11:22:05.051Z,30.7
2018-11-25T11:24:05.738Z,30.7
2018-11-25T11:26:07.550Z,30.8
2018-11-25T11:28:05.263Z,30.7
2018-11-25T11:30:05.996Z,30.7
2018-11-25T11:32:05.724Z,30.7
2018-11-25T11:34:05.035Z,30.7
2018-11-25T11:36:05.793Z,30.7
2018-11-25T11:38:05.514Z,30.7
2018-11-25T11:40:05.246Z,30.6
2018-11-25T11:42:10.998Z,30.7
2018-11-25T11:44:05.866Z,30.7
2018-11-25T11:46:05.546Z,30.8
2018-11-25T11:48:08.249Z,31.1
2018-11-25T11:50:10.986Z,31.1
2018-11-25T11:52:05.695Z,31.1
2018-11-25T11:54:05.516Z,31.2
2018-11-25T11:56:05.304Z,31.2
2018-11-25T11:58:05.512Z,30.9
2018-11-25T12:00:05.316Z,30.6
2018-11-25T12:02:05.573Z,30.6
2018-11-25T12:04:05.292Z,30.8
2018-11-25T12:06:05.979Z,30.8
2018-11-25T12:08:05.675Z,30.8
2018-11-25T12:10:08.041Z,30.9
2018-11-25T12:12:08.300Z,31.1
2018-11-25T12:14:06.064Z,30.9
2018-11-25T12:16:08.329Z,31.2
2018-11-25T12:18:05.231Z,31.2
2018-11-25T12:20:05.875Z,31.3
2018-11-25T12:22:05.077Z,31.6
2018-11-25T12:24:05.817Z,31.5
2018-11-25T12:26:05.525Z,31.5
2018-11-25T12:28:05.241Z,31.6
2018-11-25T12:30:05.922Z,31.7
2018-11-25T12:32:05.735Z,31.8
2018-11-25T12:34:08.017Z,32.1
2018-11-25T12:36:05.703Z,31.8
2018-11-25T12:38:05.437Z,31.9
2018-11-25T12:40:05.779Z,31.9
2018-11-25T12:42:08.016Z,32.2
2018-11-25T12:44:08.282Z,32.3
2018-11-25T12:46:11.041Z,32.1
2018-11-25T12:48:05.762Z,32.1
2018-11-25T12:50:05.498Z,32.2
2018-11-25T12:52:05.755Z,31.9
2018-11-25T12:54:05.029Z,32
2018-11-25T12:56:05.796Z,32
2018-11-25T12:58:07.998Z,32
2018-11-25T13:00:05.915Z,32
2018-11-25T13:02:08.106Z,32.1
2018-11-25T13:04:05.775Z,32.1
2018-11-25T13:06:10.540Z,31.9
2018-11-25T13:08:05.775Z,31.9
2018-11-25T13:10:05.538Z,31.9
2018-11-25T13:12:05.299Z,31.9
2018-11-25T13:14:08.554Z,31.8
2018-11-25T13:16:05.277Z,31.8
2018-11-25T13:18:05.204Z,31.7
2018-11-25T13:20:08.449Z,31.7
2018-11-25T13:22:05.142Z,31.7
2018-11-25T13:24:05.887Z,31.6
2018-11-25T13:26:08.258Z,31.6
2018-11-25T13:28:08.495Z,31.6
2018-11-25T13:30:05.231Z,31.6
2018-11-25T13:32:05.946Z,31.7
2018-11-25T13:34:05.610Z,31.8
2018-11-25T13:36:05.301Z,31.6
2018-11-25T13:38:05.026Z,31.7
2018-11-25T13:40:08.429Z,31.3
2018-11-25T13:42:05.152Z,31.3
2018-11-25T13:44:05.843Z,31.1
2018-11-25T13:46:08.022Z,30.9
2018-11-25T13:48:05.702Z,30.9
2018-11-25T13:50:05.401Z,30.9
2018-11-25T13:52:05.089Z,30.9
2018-11-25T13:54:10.978Z,30.9
2018-11-25T13:56:05.202Z,30.9
2018-11-25T13:58:08.364Z,30.7
2018-11-25T14:00:05.029Z,30.7
2018-11-25T14:02:05.729Z,30.7
2018-11-25T14:04:05.433Z,30.7
2018-11-25T14:06:05.103Z,30.7
2018-11-25T14:08:05.787Z,30.6
2018-11-25T14:10:05.486Z,30.6
2018-11-25T14:12:05.260Z,30.7
2018-11-25T14:14:08.506Z,30.6
2018-11-25T14:16:08.276Z,30.9
2018-11-25T14:18:05.188Z,30.9
2018-11-25T14:20:05.864Z,30.6
2018-11-25T14:22:05.558Z,30.7
2018-11-25T14:24:05.791Z,30.7
2018-11-25T14:26:05.491Z,30.8
2018-11-25T14:28:05.223Z,30.7
2018-11-25T14:30:13.648Z,30.5
2018-11-25T14:32:05.404Z,30.6
2018-11-25T14:34:05.168Z,30.4
2018-11-25T14:36:05.898Z,30.5
2018-11-25T14:38:10.655Z,30.6
2018-11-25T14:40:05.859Z,30.5
2018-11-25T14:42:05.536Z,30.5
2018-11-25T14:44:05.291Z,30.4
2018-11-25T14:46:05.996Z,30.4
2018-11-25T14:48:05.694Z,30.4
2018-11-25T14:50:08.009Z,30.5
2018-11-25T14:52:05.235Z,30.4
2018-11-25T14:54:06.217Z,30.5
2018-11-25T14:56:05.223Z,30.3
2018-11-25T14:58:05.917Z,30.3
2018-11-25T15:00:08.194Z,30.4
2018-11-25T15:02:05.868Z,30.4
2018-11-25T15:04:05.077Z,30.5
2018-11-25T15:06:05.758Z,30.4
2018-11-25T15:08:13.031Z,30.4
2018-11-25T15:10:05.840Z,30.4
2018-11-25T15:12:05.202Z,30.3
2018-11-25T15:14:08.507Z,30.3
2018-11-25T15:16:05.885Z,30.3
2018-11-25T15:18:05.841Z,30.4
2018-11-25T15:20:05.526Z,30.3
2018-11-25T15:22:10.315Z,30.1
2018-11-25T15:24:05.059Z,30.1
2018-11-25T15:26:05.710Z,30.2
2018-11-25T15:28:12.995Z,30.2
2018-11-25T15:30:07.790Z,30.2
2018-11-25T15:32:05.463Z,30.2
2018-11-25T15:34:05.142Z,30.3
2018-11-25T15:36:05.964Z,30.3
2018-11-25T15:38:05.807Z,30.2
2018-11-25T15:40:05.704Z,30.3
2018-11-25T15:42:10.510Z,30.4
2018-11-25T15:44:05.178Z,30.1
2018-11-25T15:46:05.971Z,30.3
2018-11-25T15:48:05.660Z,30.1
2018-11-25T15:50:08.429Z,30.1
2018-11-25T15:52:05.096Z,30.1
2018-11-25T15:54:08.343Z,30
2018-11-25T15:56:05.066Z,30
2018-11-25T15:58:08.513Z,30
2018-11-25T16:00:08.303Z,30.2
2018-11-25T16:02:06.003Z,30.2
2018-11-25T16:04:07.847Z,30
2018-11-25T16:06:10.674Z,30
2018-11-25T16:08:05.455Z,30
2018-11-25T16:10:05.165Z,30.1
2018-11-25T16:12:05.943Z,30.2
2018-11-25T16:14:05.705Z,30
2018-11-25T16:16:05.940Z,30
2018-11-25T16:18:06.052Z,30
2018-11-25T16:20:05.789Z,30
2018-11-25T16:22:05.512Z,30
2018-11-25T16:24:05.261Z,30
2018-11-25T16:26:08.051Z,30.1
2018-11-25T16:28:05.749Z,30
2018-11-25T16:30:05.421Z,30.1
2018-11-25T16:32:05.129Z,30
2018-11-25T16:34:05.043Z,30
2018-11-25T16:36:05.896Z,30
2018-11-25T16:38:05.593Z,30
2018-11-25T16:40:05.309Z,29.9
2018-11-25T16:42:07.668Z,29.9
2018-11-25T16:44:06.063Z,29.9
2018-11-25T16:46:05.794Z,30
2018-11-25T16:48:08.024Z,30
2018-11-25T16:50:05.671Z,30
2018-11-25T16:52:05.856Z,30
2018-11-25T16:54:05.509Z,30
2018-11-25T16:56:05.179Z,30
2018-11-25T16:58:08.405Z,30
2018-11-25T17:00:05.093Z,30
2018-11-25T17:02:05.826Z,29.8
2018-11-25T17:04:05.822Z,29.9
2018-11-25T17:06:05.525Z,30
2018-11-25T17:08:07.757Z,29.9
2018-11-25T17:10:08.009Z,29.9
2018-11-25T17:12:05.736Z,29.9
2018-11-25T17:14:12.991Z,29.9
2018-11-25T17:16:05.177Z,29.9
2018-11-25T17:18:05.060Z,29.9
2018-11-25T17:20:05.792Z,29.9
2018-11-25T17:22:05.495Z,29.9
2018-11-25T17:24:05.170Z,29.8
2018-11-25T17:26:10.865Z,29.9
2018-11-25T17:28:05.706Z,29.9
2018-11-25T17:30:05.395Z,30
2018-11-25T17:32:07.867Z,29.9
2018-11-25T17:34:05.045Z,29.8
2018-11-25T17:36:08.287Z,29.8
2018-11-25T17:38:05.992Z,29.8
2018-11-25T17:40:05.669Z,29.8
2018-11-25T17:42:05.354Z,29.8
2018-11-25T17:44:05.552Z,29.9
2018-11-25T17:46:07.743Z,29.9
2018-11-25T17:48:05.953Z,29.7
2018-11-25T17:50:05.617Z,29.8
2018-11-25T17:52:05.862Z,29.7
2018-11-25T17:54:05.588Z,29.7
2018-11-25T17:56:05.947Z,29.7
2018-11-25T17:58:05.162Z,29.7
2018-11-25T18:00:08.381Z,29.7
2018-11-25T18:02:06.328Z,29.7
2018-11-25T18:04:04.998Z,29.8
2018-11-25T18:06:05.790Z,29.8
2018-11-25T18:08:05.493Z,29.8
2018-11-25T18:10:10.330Z,29.8
2018-11-25T18:12:05.065Z,29.8
2018-11-25T18:14:05.827Z,29.8
2018-11-25T18:16:05.581Z,29.7
2018-11-25T18:18:07.577Z,29.7
2018-11-25T18:20:10.467Z,29.6
2018-11-25T18:22:07.726Z,29.6
2018-11-25T18:24:05.434Z,29.6
2018-11-25T18:26:10.288Z,29.7
2018-11-25T18:28:13.565Z,29.7
2018-11-25T18:30:05.282Z,29.7
2018-11-25T18:32:05.480Z,29.5
2018-11-25T18:34:10.185Z,29.5
2018-11-25T18:36:05.923Z,29.6
2018-11-25T18:38:05.587Z,29.6
2018-11-25T18:40:05.309Z,29.7
2018-11-25T18:42:06.022Z,29.5
2018-11-25T18:44:08.237Z,29.7
2018-11-25T18:46:06.008Z,29.5
2018-11-25T18:48:05.754Z,29.6
2018-11-25T18:50:05.085Z,29.5
2018-11-25T18:52:25.972Z,29.5
2018-11-25T18:54:13.254Z,29.5
2018-11-25T18:56:08.040Z,29.5
2018-11-25T18:58:05.749Z,29.5
2018-11-25T19:00:05.455Z,29.5
2018-11-25T19:02:08.193Z,29.5
2018-11-25T19:04:08.419Z,29.5
2018-11-25T19:06:07.670Z,29.5
2018-11-25T19:08:05.421Z,29.5
2018-11-25T19:10:05.166Z,29.6
2018-11-25T19:12:05.882Z,29.6
2018-11-25T19:14:10.661Z,29.4
2018-11-25T19:16:05.390Z,29.4
2018-11-25T19:18:05.951Z,29.4
2018-11-25T19:20:05.695Z,29.4
2018-11-25T19:22:05.963Z,29.6
2018-11-25T19:24:07.769Z,29.4
2018-11-25T19:26:05.603Z,29.4
2018-11-25T19:28:07.860Z,29.4
2018-11-25T19:30:05.567Z,29.4
2018-11-25T19:32:05.255Z,29.5
2018-11-25T19:34:05.926Z,29.5
2018-11-25T19:36:10.707Z,29.5
2018-11-25T19:38:05.429Z,29.4
2018-11-25T19:40:05.153Z,29.3
2018-11-25T19:42:05.875Z,29.3
2018-11-25T19:44:05.856Z,29.5
2018-11-25T19:46:10.649Z,29.4
2018-11-25T19:48:05.375Z,29.4
2018-11-25T19:50:05.147Z,29.4
2018-11-25T19:52:10.448Z,29.4
2018-11-25T19:54:05.234Z,29.4
2018-11-25T19:56:06.062Z,29.3
2018-11-25T19:58:05.789Z,29.4
2018-11-25T20:00:05.443Z,29.4
2018-11-25T20:02:05.167Z,29.7
2018-11-25T20:04:05.877Z,29.4
2018-11-25T20:06:10.688Z,29.2
2018-11-25T20:08:05.411Z,29.2
2018-11-25T20:10:05.641Z,29.3
2018-11-25T20:12:05.303Z,29.3
2018-11-25T20:14:16.208Z,29.3
2018-11-25T20:16:05.973Z,29.3
2018-11-25T20:18:08.509Z,29.3
2018-11-25T20:20:05.226Z,29.3
2018-11-25T20:22:13.588Z,29.3
2018-11-25T20:24:07.816Z,29.3
2018-11-25T20:26:08.065Z,29.3
2018-11-25T20:28:05.914Z,29.2
2018-11-25T20:30:05.914Z,29.3
2018-11-25T20:32:06.596Z,29.3
2018-11-25T20:34:05.297Z,29.3
2018-11-25T20:36:06.247Z,29.3
2018-11-25T20:38:11.060Z,29.3
2018-11-25T20:40:08.279Z,29.3
2018-11-25T20:42:05.979Z,29.3
2018-11-25T20:44:13.296Z,29.3
2018-11-25T20:46:06.024Z,29.3
2018-11-25T20:48:10.847Z,29.2
2018-11-25T20:50:05.172Z,29.2
2018-11-25T20:52:05.885Z,29.2
2018-11-25T20:54:05.838Z,29.3
2018-11-25T20:56:05.607Z,29.2
2018-11-25T20:58:08.035Z,29.2
2018-11-25T21:00:05.796Z,29.2
2018-11-25T21:02:05.717Z,29.2
2018-11-25T21:04:10.525Z,29.2
2018-11-25T21:06:05.292Z,29.2
2018-11-25T21:08:05.507Z,29.2
2018-11-25T21:10:05.895Z,29.2
2018-11-25T21:12:05.574Z,29.1
2018-11-25T21:14:05.288Z,29.3
2018-11-25T21:16:06.013Z,29.2
2018-11-25T21:18:05.907Z,29.2
2018-11-25T21:20:06.382Z,29.2
2018-11-25T21:22:05.696Z,29
2018-11-25T21:24:05.393Z,29.2
2018-11-25T21:26:05.079Z,29.1
2018-11-25T21:28:08.310Z,29
2018-11-25T21:30:06.029Z,29
2018-11-25T21:32:05.352Z,29.1
2018-11-25T21:34:05.576Z,29.1
2018-11-25T21:36:05.319Z,29.1
2018-11-25T21:38:05.245Z,29.1
2018-11-25T21:40:05.456Z,29
2018-11-25T21:42:05.187Z,29.1
2018-11-25T21:44:05.635Z,29.1
2018-11-25T21:46:08.485Z,29.1
2018-11-25T21:48:05.681Z,28.9
2018-11-25T21:50:05.565Z,29.1
2018-11-25T21:52:05.483Z,29.1
2018-11-25T21:54:05.388Z,29.1
2018-11-25T21:56:05.077Z,29.1
2018-11-25T21:58:05.275Z,29
2018-11-25T22:00:06.067Z,29.1
2018-11-25T22:02:05.832Z,29
2018-11-25T22:04:05.253Z,28.9
2018-11-25T22:06:08.482Z,29.1
2018-11-25T22:08:05.933Z,29
2018-11-25T22:10:05.747Z,29
2018-11-25T22:12:05.992Z,29
2018-11-25T22:14:05.693Z,29
2018-11-25T22:16:05.353Z,28.8
2018-11-25T22:18:05.235Z,29
2018-11-25T22:20:05.961Z,29
2018-11-25T22:22:05.718Z,29
2018-11-25T22:24:05.999Z,29
2018-11-25T22:26:05.269Z,28.9
2018-11-25T22:28:05.981Z,28.9
2018-11-25T22:30:05.649Z,28.9
2018-11-25T22:32:05.415Z,28.8
2018-11-25T22:34:07.626Z,29
2018-11-25T22:36:05.429Z,28.8
2018-11-25T22:38:15.231Z,28.8
2018-11-25T22:40:05.432Z,29
2018-11-25T22:42:05.116Z,29
2018-11-25T22:44:05.871Z,29
2018-11-25T22:46:08.107Z,29
2018-11-25T22:48:05.826Z,28.8
2018-11-25T22:50:13.377Z,28.9
2018-11-25T22:52:05.533Z,28.9
2018-11-25T22:54:05.228Z,28.9
2018-11-25T22:56:08.521Z,28.8
2018-11-25T22:58:10.310Z,28.9
2018-11-25T23:00:06.003Z,28.7
2018-11-25T23:02:05.756Z,29
2018-11-25T23:04:08.046Z,28.9
2018-11-25T23:06:10.057Z,28.9
2018-11-25T23:08:06.003Z,28.9
2018-11-25T23:10:05.248Z,28.9
2018-11-25T23:12:11.013Z,29
2018-11-25T23:14:05.720Z,28.8
2018-11-25T23:16:05.936Z,28.9
2018-11-25T23:18:05.945Z,28.9
2018-11-25T23:20:05.651Z,28.9
2018-11-25T23:22:07.933Z,28.9
2018-11-25T23:24:05.209Z,28.8
2018-11-25T23:26:13.560Z,28.8
2018-11-25T23:28:10.325Z,28.8
2018-11-25T23:30:05.072Z,28.8
2018-11-25T23:32:05.326Z,28.9
2018-11-25T23:34:08.100Z,28.9
2018-11-25T23:36:08.336Z,28.9
2018-11-25T23:38:05.013Z,28.9
2018-11-25T23:40:05.705Z,28.9
2018-11-25T23:42:05.364Z,28.8
2018-11-25T23:44:07.562Z,28.8
2018-11-25T23:46:05.217Z,28.8
2018-11-25T23:48:05.903Z,28.8
2018-11-25T23:50:08.144Z,28.9
2018-11-25T23:52:05.899Z,28.9
2018-11-25T23:54:08.128Z,28.8
2018-11-25T23:56:05.828Z,28.9
2018-11-25T23:58:10.787Z,28.7
